sensor_id;sensor_type;location;lat;lon;timestamp;P1;durP1;ratioP1;P2;durP2;ratioP2
42662;SDS011;44330;51.360;6.686;2022-09-09T00:01:08;1.38;;;0.57;;
42662;SDS011;44330;51.360;6.686;2022-09-09T00:11:12;1.33;;;0.60;;
42662;SDS011;44330;51.360;6.686;2022-09-09T00:13:50;2.70;;;0.77;;
42662;SDS011;44330;51.360;6.686;2022-09-09T00:16:22;4.78;;;0.50;;
42662;SDS011;44330;51.360;6.686;2022-09-09T00:19:02;2.83;;;1.02;;
42662;SDS011;44330;51.360;6.686;2022-09-09T00:21:52;2.45;;;0.90;;
42662;SDS011;44330;51.360;6.686;2022-09-09T00:24:46;3.33;;;0.77;;
42662;SDS011;44330;51.360;6.686;2022-09-09T00:30:15;5.18;;;0.82;;
42662;SDS011;44330;51.360;6.686;2022-09-09T00:33:33;3.72;;;0.80;;
42662;SDS011;44330;51.360;6.686;2022-09-09T00:35:41;0.50;;;0.45;;
42662;SDS011;44330;51.360;6.686;2022-09-09T00:43:29;3.95;;;0.90;;
42662;SDS011;44330;51.360;6.686;2022-09-09T00:48:22;3.72;;;1.00;;
42662;SDS011;44330;51.360;6.686;2022-09-09T00:50:57;1.45;;;1.08;;
42662;SDS011;44330;51.360;6.686;2022-09-09T00:56:23;4.50;;;3.60;;
42662;SDS011;44330;51.360;6.686;2022-09-09T01:01:50;5.50;;;4.88;;
42662;SDS011;44330;51.360;6.686;2022-09-09T01:04:21;7.40;;;4.63;;
42662;SDS011;44330;51.360;6.686;2022-09-09T01:06:58;7.45;;;4.90;;
42662;SDS011;44330;51.360;6.686;2022-09-09T01:09:42;5.82;;;3.60;;
42662;SDS011;44330;51.360;6.686;2022-09-09T01:12:23;8.43;;;4.85;;
42662;SDS011;44330;51.360;6.686;2022-09-09T01:15:08;8.90;;;4.18;;
42662;SDS011;44330;51.360;6.686;2022-09-09T01:17:47;7.95;;;4.05;;
42662;SDS011;44330;51.360;6.686;2022-09-09T01:20:20;3.90;;;2.72;;
42662;SDS011;44330;51.360;6.686;2022-09-09T01:28:22;2.75;;;1.98;;
42662;SDS011;44330;51.360;6.686;2022-09-09T01:30:53;2.25;;;1.55;;
42662;SDS011;44330;51.360;6.686;2022-09-09T01:33:21;6.27;;;1.77;;
42662;SDS011;44330;51.360;6.686;2022-09-09T01:38:22;2.95;;;1.85;;
42662;SDS011;44330;51.360;6.686;2022-09-09T01:40:49;4.15;;;1.98;;
42662;SDS011;44330;51.360;6.686;2022-09-09T01:43:17;7.70;;;2.25;;
42662;SDS011;44330;51.360;6.686;2022-09-09T01:45:44;5.63;;;1.88;;
42662;SDS011;44330;51.360;6.686;2022-09-09T01:48:12;5.57;;;1.70;;
42662;SDS011;44330;51.360;6.686;2022-09-09T01:50:40;4.90;;;1.50;;
42662;SDS011;44330;51.360;6.686;2022-09-09T01:53:06;3.55;;;1.63;;
42662;SDS011;44330;51.360;6.686;2022-09-09T01:55:37;4.60;;;1.60;;
42662;SDS011;44330;51.360;6.686;2022-09-09T01:58:08;6.95;;;2.40;;
42662;SDS011;44330;51.360;6.686;2022-09-09T02:00:41;5.75;;;2.10;;
42662;SDS011;44330;51.360;6.686;2022-09-09T02:03:20;9.73;;;2.85;;
42662;SDS011;44330;51.360;6.686;2022-09-09T02:11:01;5.10;;;2.17;;
42662;SDS011;44330;51.360;6.686;2022-09-09T02:13:35;2.05;;;1.65;;
42662;SDS011;44330;51.360;6.686;2022-09-09T02:18:43;4.18;;;1.60;;
42662;SDS011;44330;51.360;6.686;2022-09-09T02:21:11;5.53;;;1.65;;
42662;SDS011;44330;51.360;6.686;2022-09-09T02:23:38;9.07;;;1.93;;
42662;SDS011;44330;51.360;6.686;2022-09-09T02:26:11;6.60;;;1.80;;
42662;SDS011;44330;51.360;6.686;2022-09-09T02:28:39;4.00;;;1.88;;
42662;SDS011;44330;51.360;6.686;2022-09-09T02:31:07;8.48;;;2.40;;
42662;SDS011;44330;51.360;6.686;2022-09-09T02:33:33;7.63;;;2.00;;
42662;SDS011;44330;51.360;6.686;2022-09-09T02:36:08;8.45;;;2.58;;
42662;SDS011;44330;51.360;6.686;2022-09-09T02:38:37;4.93;;;2.03;;
42662;SDS011;44330;51.360;6.686;2022-09-09T02:41:10;8.35;;;2.90;;
42662;SDS011;44330;51.360;6.686;2022-09-09T02:43:36;8.45;;;2.65;;
42662;SDS011;44330;51.360;6.686;2022-09-09T02:49:04;13.45;;;2.22;;
42662;SDS011;44330;51.360;6.686;2022-09-09T02:51:36;7.20;;;2.80;;
42662;SDS011;44330;51.360;6.686;2022-09-09T02:56:55;10.88;;;3.58;;
42662;SDS011;44330;51.360;6.686;2022-09-09T02:59:28;7.85;;;2.88;;
42662;SDS011;44330;51.360;6.686;2022-09-09T03:01:55;8.43;;;3.28;;
42662;SDS011;44330;51.360;6.686;2022-09-09T03:04:21;8.88;;;2.67;;
42662;SDS011;44330;51.360;6.686;2022-09-09T03:06:46;10.43;;;2.20;;
42662;SDS011;44330;51.360;6.686;2022-09-09T03:09:12;5.47;;;1.98;;
42662;SDS011;44330;51.360;6.686;2022-09-09T03:11:37;6.53;;;1.90;;
42662;SDS011;44330;51.360;6.686;2022-09-09T03:14:03;9.48;;;2.05;;
42662;SDS011;44330;51.360;6.686;2022-09-09T03:16:29;5.28;;;1.88;;
42662;SDS011;44330;51.360;6.686;2022-09-09T03:18:55;5.88;;;1.80;;
42662;SDS011;44330;51.360;6.686;2022-09-09T03:21:21;7.85;;;1.88;;
42662;SDS011;44330;51.360;6.686;2022-09-09T03:23:46;8.75;;;2.03;;
42662;SDS011;44330;51.360;6.686;2022-09-09T03:26:12;6.07;;;1.48;;
42662;SDS011;44330;51.360;6.686;2022-09-09T03:28:39;7.80;;;1.33;;
42662;SDS011;44330;51.360;6.686;2022-09-09T03:31:05;11.57;;;1.42;;
42662;SDS011;44330;51.360;6.686;2022-09-09T03:33:31;6.50;;;1.80;;
42662;SDS011;44330;51.360;6.686;2022-09-09T03:35:56;7.53;;;1.73;;
42662;SDS011;44330;51.360;6.686;2022-09-09T03:38:23;7.28;;;1.45;;
42662;SDS011;44330;51.360;6.686;2022-09-09T03:40:52;7.13;;;1.73;;
42662;SDS011;44330;51.360;6.686;2022-09-09T03:43:27;7.72;;;1.83;;
42662;SDS011;44330;51.360;6.686;2022-09-09T03:45:53;10.65;;;2.30;;
42662;SDS011;44330;51.360;6.686;2022-09-09T03:48:22;6.40;;;2.08;;
42662;SDS011;44330;51.360;6.686;2022-09-09T03:50:50;6.80;;;1.95;;
42662;SDS011;44330;51.360;6.686;2022-09-09T03:53:17;7.68;;;2.03;;
42662;SDS011;44330;51.360;6.686;2022-09-09T03:55:49;6.07;;;1.67;;
42662;SDS011;44330;51.360;6.686;2022-09-09T03:58:20;9.95;;;2.17;;
42662;SDS011;44330;51.360;6.686;2022-09-09T04:01:05;18.20;;;2.35;;
42662;SDS011;44330;51.360;6.686;2022-09-09T04:03:38;8.07;;;2.03;;
42662;SDS011;44330;51.360;6.686;2022-09-09T04:06:04;6.25;;;2.15;;
42662;SDS011;44330;51.360;6.686;2022-09-09T04:08:31;10.43;;;2.17;;
42662;SDS011;44330;51.360;6.686;2022-09-09T04:11:00;10.25;;;2.38;;
42662;SDS011;44330;51.360;6.686;2022-09-09T04:13:31;5.45;;;1.80;;
42662;SDS011;44330;51.360;6.686;2022-09-09T04:15:58;8.30;;;2.60;;
42662;SDS011;44330;51.360;6.686;2022-09-09T04:18:24;13.38;;;2.67;;
42662;SDS011;44330;51.360;6.686;2022-09-09T04:20:51;7.07;;;2.38;;
42662;SDS011;44330;51.360;6.686;2022-09-09T04:23:19;16.45;;;2.55;;
42662;SDS011;44330;51.360;6.686;2022-09-09T04:25:48;9.15;;;2.10;;
42662;SDS011;44330;51.360;6.686;2022-09-09T04:28:16;11.63;;;2.47;;
42662;SDS011;44330;51.360;6.686;2022-09-09T04:30:43;8.23;;;2.30;;
42662;SDS011;44330;51.360;6.686;2022-09-09T04:33:10;11.60;;;2.20;;
42662;SDS011;44330;51.360;6.686;2022-09-09T04:35:36;9.73;;;2.80;;
42662;SDS011;44330;51.360;6.686;2022-09-09T04:38:03;9.27;;;2.40;;
42662;SDS011;44330;51.360;6.686;2022-09-09T04:40:30;11.02;;;2.28;;
42662;SDS011;44330;51.360;6.686;2022-09-09T04:43:00;7.75;;;2.15;;
42662;SDS011;44330;51.360;6.686;2022-09-09T04:45:28;11.20;;;2.95;;
42662;SDS011;44330;51.360;6.686;2022-09-09T04:47:53;15.25;;;3.00;;
42662;SDS011;44330;51.360;6.686;2022-09-09T04:50:20;13.20;;;3.30;;
42662;SDS011;44330;51.360;6.686;2022-09-09T04:52:45;13.23;;;3.63;;
42662;SDS011;44330;51.360;6.686;2022-09-09T04:55:11;12.95;;;2.85;;
42662;SDS011;44330;51.360;6.686;2022-09-09T04:57:38;10.32;;;2.50;;
42662;SDS011;44330;51.360;6.686;2022-09-09T05:00:04;10.23;;;2.40;;
42662;SDS011;44330;51.360;6.686;2022-09-09T05:02:30;11.90;;;2.63;;
42662;SDS011;44330;51.360;6.686;2022-09-09T05:04:56;17.88;;;2.88;;
42662;SDS011;44330;51.360;6.686;2022-09-09T05:07:23;10.60;;;2.85;;
42662;SDS011;44330;51.360;6.686;2022-09-09T05:09:49;14.80;;;3.25;;
42662;SDS011;44330;51.360;6.686;2022-09-09T05:12:15;12.65;;;2.28;;
42662;SDS011;44330;51.360;6.686;2022-09-09T05:14:42;15.05;;;3.08;;
42662;SDS011;44330;51.360;6.686;2022-09-09T05:17:08;14.57;;;2.83;;
42662;SDS011;44330;51.360;6.686;2022-09-09T05:19:34;6.03;;;2.15;;
42662;SDS011;44330;51.360;6.686;2022-09-09T05:21:59;8.50;;;2.90;;
42662;SDS011;44330;51.360;6.686;2022-09-09T05:24:26;11.70;;;2.97;;
42662;SDS011;44330;51.360;6.686;2022-09-09T05:26:51;12.85;;;2.85;;
42662;SDS011;44330;51.360;6.686;2022-09-09T05:29:17;16.38;;;3.15;;
42662;SDS011;44330;51.360;6.686;2022-09-09T05:31:44;15.02;;;3.45;;
42662;SDS011;44330;51.360;6.686;2022-09-09T05:34:12;12.05;;;3.00;;
42662;SDS011;44330;51.360;6.686;2022-09-09T05:36:38;9.43;;;2.40;;
42662;SDS011;44330;51.360;6.686;2022-09-09T05:39:03;17.52;;;2.90;;
42662;SDS011;44330;51.360;6.686;2022-09-09T05:41:29;14.75;;;2.83;;
42662;SDS011;44330;51.360;6.686;2022-09-09T05:43:55;15.20;;;3.85;;
42662;SDS011;44330;51.360;6.686;2022-09-09T05:46:22;8.25;;;2.15;;
42662;SDS011;44330;51.360;6.686;2022-09-09T05:48:50;11.13;;;2.25;;
42662;SDS011;44330;51.360;6.686;2022-09-09T05:51:17;8.70;;;2.58;;
42662;SDS011;44330;51.360;6.686;2022-09-09T05:53:48;13.68;;;2.72;;
42662;SDS011;44330;51.360;6.686;2022-09-09T05:56:15;10.68;;;2.75;;
42662;SDS011;44330;51.360;6.686;2022-09-09T05:58:44;11.18;;;2.63;;
42662;SDS011;44330;51.360;6.686;2022-09-09T06:01:15;16.67;;;2.50;;
42662;SDS011;44330;51.360;6.686;2022-09-09T06:03:42;13.82;;;2.30;;
42662;SDS011;44330;51.360;6.686;2022-09-09T06:06:10;6.55;;;1.90;;
42662;SDS011;44330;51.360;6.686;2022-09-09T06:08:38;10.93;;;2.28;;
42662;SDS011;44330;51.360;6.686;2022-09-09T06:11:07;7.00;;;2.00;;
42662;SDS011;44330;51.360;6.686;2022-09-09T06:13:35;13.32;;;2.40;;
42662;SDS011;44330;51.360;6.686;2022-09-09T06:16:03;8.60;;;2.05;;
42662;SDS011;44330;51.360;6.686;2022-09-09T06:18:29;8.18;;;2.13;;
42662;SDS011;44330;51.360;6.686;2022-09-09T06:21:02;10.82;;;1.83;;
42662;SDS011;44330;51.360;6.686;2022-09-09T06:23:30;8.35;;;1.95;;
42662;SDS011;44330;51.360;6.686;2022-09-09T06:28:38;17.38;;;2.00;;
42662;SDS011;44330;51.360;6.686;2022-09-09T06:31:05;10.65;;;2.28;;
42662;SDS011;44330;51.360;6.686;2022-09-09T06:33:33;10.40;;;2.60;;
42662;SDS011;44330;51.360;6.686;2022-09-09T06:36:00;13.27;;;2.38;;
42662;SDS011;44330;51.360;6.686;2022-09-09T06:38:28;13.93;;;3.03;;
42662;SDS011;44330;51.360;6.686;2022-09-09T06:40:54;9.82;;;2.47;;
42662;SDS011;44330;51.360;6.686;2022-09-09T06:43:21;9.35;;;2.20;;
42662;SDS011;44330;51.360;6.686;2022-09-09T06:48:19;10.18;;;2.53;;
42662;SDS011;44330;51.360;6.686;2022-09-09T06:50:45;12.88;;;2.53;;
42662;SDS011;44330;51.360;6.686;2022-09-09T06:53:11;9.13;;;2.10;;
42662;SDS011;44330;51.360;6.686;2022-09-09T06:55:36;7.28;;;1.90;;
42662;SDS011;44330;51.360;6.686;2022-09-09T06:58:02;7.38;;;1.88;;
42662;SDS011;44330;51.360;6.686;2022-09-09T07:00:32;9.45;;;2.00;;
42662;SDS011;44330;51.360;6.686;2022-09-09T07:02:58;5.30;;;1.27;;
42662;SDS011;44330;51.360;6.686;2022-09-09T07:05:23;8.63;;;2.22;;
42662;SDS011;44330;51.360;6.686;2022-09-09T07:07:50;12.38;;;2.33;;
42662;SDS011;44330;51.360;6.686;2022-09-09T07:10:16;8.93;;;2.15;;
42662;SDS011;44330;51.360;6.686;2022-09-09T07:12:42;9.68;;;2.03;;
42662;SDS011;44330;51.360;6.686;2022-09-09T07:15:08;8.50;;;2.22;;
42662;SDS011;44330;51.360;6.686;2022-09-09T07:17:34;6.35;;;1.52;;
42662;SDS011;44330;51.360;6.686;2022-09-09T07:20:00;7.60;;;1.95;;
42662;SDS011;44330;51.360;6.686;2022-09-09T07:22:27;7.45;;;2.00;;
42662;SDS011;44330;51.360;6.686;2022-09-09T07:24:53;13.10;;;2.58;;
42662;SDS011;44330;51.360;6.686;2022-09-09T07:27:19;8.65;;;2.15;;
42662;SDS011;44330;51.360;6.686;2022-09-09T07:29:47;11.18;;;2.58;;
42662;SDS011;44330;51.360;6.686;2022-09-09T07:32:13;11.07;;;1.88;;
42662;SDS011;44330;51.360;6.686;2022-09-09T07:34:39;13.30;;;1.98;;
42662;SDS011;44330;51.360;6.686;2022-09-09T07:37:04;7.53;;;1.50;;
42662;SDS011;44330;51.360;6.686;2022-09-09T07:39:30;8.40;;;2.00;;
42662;SDS011;44330;51.360;6.686;2022-09-09T07:41:56;8.13;;;1.67;;
42662;SDS011;44330;51.360;6.686;2022-09-09T07:44:22;10.27;;;2.03;;
42662;SDS011;44330;51.360;6.686;2022-09-09T07:46:52;11.98;;;2.53;;
42662;SDS011;44330;51.360;6.686;2022-09-09T07:49:17;11.85;;;2.10;;
42662;SDS011;44330;51.360;6.686;2022-09-09T07:51:45;13.30;;;1.90;;
42662;SDS011;44330;51.360;6.686;2022-09-09T07:54:15;8.88;;;1.80;;
42662;SDS011;44330;51.360;6.686;2022-09-09T07:56:44;10.25;;;1.75;;
42662;SDS011;44330;51.360;6.686;2022-09-09T07:59:11;8.48;;;1.80;;
42662;SDS011;44330;51.360;6.686;2022-09-09T08:01:41;8.75;;;1.90;;
42662;SDS011;44330;51.360;6.686;2022-09-09T08:04:17;12.48;;;1.98;;
42662;SDS011;44330;51.360;6.686;2022-09-09T08:06:45;10.20;;;1.85;;
42662;SDS011;44330;51.360;6.686;2022-09-09T08:11:39;6.72;;;1.75;;
42662;SDS011;44330;51.360;6.686;2022-09-09T08:14:06;7.32;;;1.80;;
42662;SDS011;44330;51.360;6.686;2022-09-09T08:16:33;7.10;;;1.38;;
42662;SDS011;44330;51.360;6.686;2022-09-09T08:21:28;18.63;;;2.38;;
42662;SDS011;44330;51.360;6.686;2022-09-09T08:23:55;7.82;;;1.35;;
42662;SDS011;44330;51.360;6.686;2022-09-09T08:26:23;5.45;;;1.63;;
42662;SDS011;44330;51.360;6.686;2022-09-09T08:28:51;7.55;;;1.35;;
42662;SDS011;44330;51.360;6.686;2022-09-09T08:31:19;9.75;;;2.30;;
42662;SDS011;44330;51.360;6.686;2022-09-09T08:33:46;7.18;;;1.60;;
42662;SDS011;44330;51.360;6.686;2022-09-09T08:36:13;8.30;;;1.55;;
42662;SDS011;44330;51.360;6.686;2022-09-09T08:38:40;7.85;;;1.48;;
42662;SDS011;44330;51.360;6.686;2022-09-09T08:41:20;10.70;;;2.17;;
42662;SDS011;44330;51.360;6.686;2022-09-09T08:44:15;7.03;;;1.67;;
42662;SDS011;44330;51.360;6.686;2022-09-09T08:49:49;10.57;;;1.67;;
42662;SDS011;44330;51.360;6.686;2022-09-09T08:52:25;9.23;;;2.55;;
42662;SDS011;44330;51.360;6.686;2022-09-09T08:55:01;6.13;;;1.92;;
42662;SDS011;44330;51.360;6.686;2022-09-09T08:57:35;13.35;;;2.38;;
42662;SDS011;44330;51.360;6.686;2022-09-09T09:00:01;8.85;;;1.70;;
42662;SDS011;44330;51.360;6.686;2022-09-09T09:02:39;9.57;;;1.40;;
42662;SDS011;44330;51.360;6.686;2022-09-09T09:08:13;9.30;;;1.77;;
42662;SDS011;44330;51.360;6.686;2022-09-09T09:10:46;9.48;;;1.75;;
42662;SDS011;44330;51.360;6.686;2022-09-09T09:13:38;9.88;;;1.67;;
42662;SDS011;44330;51.360;6.686;2022-09-09T09:19:01;7.03;;;1.45;;
42662;SDS011;44330;51.360;6.686;2022-09-09T09:21:43;7.00;;;1.55;;
42662;SDS011;44330;51.360;6.686;2022-09-09T09:24:19;6.80;;;1.45;;
42662;SDS011;44330;51.360;6.686;2022-09-09T09:26:52;8.23;;;1.73;;
42662;SDS011;44330;51.360;6.686;2022-09-09T09:29:19;10.20;;;1.83;;
42662;SDS011;44330;51.360;6.686;2022-09-09T09:31:53;5.55;;;1.38;;
42662;SDS011;44330;51.360;6.686;2022-09-09T09:34:21;8.70;;;1.88;;
42662;SDS011;44330;51.360;6.686;2022-09-09T09:36:57;6.68;;;1.85;;
42662;SDS011;44330;51.360;6.686;2022-09-09T09:39:28;5.78;;;1.40;;
42662;SDS011;44330;51.360;6.686;2022-09-09T09:41:56;7.07;;;1.88;;
42662;SDS011;44330;51.360;6.686;2022-09-09T09:44:26;7.53;;;1.60;;
42662;SDS011;44330;51.360;6.686;2022-09-09T09:47:05;6.22;;;1.25;;
42662;SDS011;44330;51.360;6.686;2022-09-09T09:49:32;6.93;;;1.45;;
42662;SDS011;44330;51.360;6.686;2022-09-09T09:52:02;8.50;;;1.70;;
42662;SDS011;44330;51.360;6.686;2022-09-09T09:54:38;8.07;;;1.30;;
42662;SDS011;44330;51.360;6.686;2022-09-09T09:57:14;5.70;;;1.23;;
42662;SDS011;44330;51.360;6.686;2022-09-09T09:59:41;8.88;;;1.77;;
42662;SDS011;44330;51.360;6.686;2022-09-09T10:02:13;3.13;;;1.10;;
42662;SDS011;44330;51.360;6.686;2022-09-09T10:04:38;6.35;;;0.90;;
42662;SDS011;44330;51.360;6.686;2022-09-09T10:07:11;9.02;;;1.63;;
42662;SDS011;44330;51.360;6.686;2022-09-09T10:09:37;4.75;;;1.52;;
42662;SDS011;44330;51.360;6.686;2022-09-09T10:15:06;7.28;;;1.55;;
42662;SDS011;44330;51.360;6.686;2022-09-09T10:23:08;3.22;;;1.08;;
42662;SDS011;44330;51.360;6.686;2022-09-09T10:26:03;3.85;;;1.15;;
42662;SDS011;44330;51.360;6.686;2022-09-09T10:28:35;6.13;;;1.27;;
42662;SDS011;44330;51.360;6.686;2022-09-09T10:36:21;5.10;;;1.25;;
42662;SDS011;44330;51.360;6.686;2022-09-09T10:38:57;3.90;;;1.30;;
42662;SDS011;44330;51.360;6.686;2022-09-09T10:56:16;3.03;;;1.10;;
42662;SDS011;44330;51.360;6.686;2022-09-09T10:58:53;8.20;;;1.13;;
42662;SDS011;44330;51.360;6.686;2022-09-09T11:01:22;3.55;;;0.82;;
42662;SDS011;44330;51.360;6.686;2022-09-09T11:03:53;6.82;;;1.17;;
42662;SDS011;44330;51.360;6.686;2022-09-09T11:06:24;4.35;;;1.25;;
42662;SDS011;44330;51.360;6.686;2022-09-09T11:08:55;4.90;;;1.08;;
42662;SDS011;44330;51.360;6.686;2022-09-09T11:11:28;7.18;;;1.45;;
42662;SDS011;44330;51.360;6.686;2022-09-09T11:16:42;6.22;;;1.00;;
42662;SDS011;44330;51.360;6.686;2022-09-09T11:19:24;5.28;;;1.33;;
42662;SDS011;44330;51.360;6.686;2022-09-09T11:38:46;5.88;;;1.42;;
42662;SDS011;44330;51.360;6.686;2022-09-09T11:41:13;4.65;;;1.27;;
42662;SDS011;44330;51.360;6.686;2022-09-09T11:43:50;4.38;;;1.13;;
42662;SDS011;44330;51.360;6.686;2022-09-09T11:46:17;6.35;;;1.10;;
42662;SDS011;44330;51.360;6.686;2022-09-09T11:48:59;4.90;;;1.17;;
42662;SDS011;44330;51.360;6.686;2022-09-09T11:51:27;5.68;;;1.00;;
42662;SDS011;44330;51.360;6.686;2022-09-09T11:53:56;8.05;;;1.10;;
42662;SDS011;44330;51.360;6.686;2022-09-09T11:56:33;5.57;;;1.20;;
42662;SDS011;44330;51.360;6.686;2022-09-09T11:59:20;6.70;;;1.40;;
42662;SDS011;44330;51.360;6.686;2022-09-09T12:01:55;5.93;;;1.42;;
42662;SDS011;44330;51.360;6.686;2022-09-09T12:04:39;5.80;;;1.25;;
42662;SDS011;44330;51.360;6.686;2022-09-09T12:12:36;3.35;;;0.80;;
42662;SDS011;44330;51.360;6.686;2022-09-09T12:15:17;2.33;;;0.93;;
42662;SDS011;44330;51.360;6.686;2022-09-09T12:17:58;5.40;;;1.00;;
42662;SDS011;44330;51.360;6.686;2022-09-09T12:23:06;6.80;;;1.20;;
42662;SDS011;44330;51.360;6.686;2022-09-09T12:25:55;3.78;;;1.33;;
42662;SDS011;44330;51.360;6.686;2022-09-09T12:28:53;7.65;;;1.17;;
42662;SDS011;44330;51.360;6.686;2022-09-09T12:33:55;3.88;;;0.95;;
42662;SDS011;44330;51.360;6.686;2022-09-09T12:36:29;1.90;;;0.80;;
42662;SDS011;44330;51.360;6.686;2022-09-09T12:38:58;7.68;;;1.85;;
42662;SDS011;44330;51.360;6.686;2022-09-09T12:41:35;6.07;;;1.40;;
42662;SDS011;44330;51.360;6.686;2022-09-09T12:44:08;5.00;;;1.50;;
42662;SDS011;44330;51.360;6.686;2022-09-09T12:46:42;2.53;;;1.05;;
42662;SDS011;44330;51.360;6.686;2022-09-09T12:54:57;6.53;;;1.88;;
42662;SDS011;44330;51.360;6.686;2022-09-09T12:57:25;6.53;;;1.20;;
42662;SDS011;44330;51.360;6.686;2022-09-09T13:00:04;5.85;;;1.20;;
42662;SDS011;44330;51.360;6.686;2022-09-09T13:02:45;5.07;;;1.38;;
42662;SDS011;44330;51.360;6.686;2022-09-09T13:05:21;7.57;;;1.45;;
42662;SDS011;44330;51.360;6.686;2022-09-09T13:07:48;5.10;;;1.70;;
42662;SDS011;44330;51.360;6.686;2022-09-09T13:10:14;8.32;;;2.13;;
42662;SDS011;44330;51.360;6.686;2022-09-09T13:12:45;4.30;;;1.55;;
42662;SDS011;44330;51.360;6.686;2022-09-09T13:15:14;5.22;;;1.45;;
42662;SDS011;44330;51.360;6.686;2022-09-09T13:17:49;8.60;;;1.55;;
42662;SDS011;44330;51.360;6.686;2022-09-09T13:20:20;5.63;;;1.42;;
42662;SDS011;44330;51.360;6.686;2022-09-09T13:22:48;5.13;;;1.52;;
42662;SDS011;44330;51.360;6.686;2022-09-09T13:25:20;4.25;;;1.42;;
42662;SDS011;44330;51.360;6.686;2022-09-09T13:28:00;7.22;;;1.25;;
42662;SDS011;44330;51.360;6.686;2022-09-09T13:35:36;5.25;;;1.02;;
42662;SDS011;44330;51.360;6.686;2022-09-09T13:38:21;6.63;;;1.40;;
42662;SDS011;44330;51.360;6.686;2022-09-09T13:43:22;3.92;;;1.30;;
42662;SDS011;44330;51.360;6.686;2022-09-09T13:45:59;4.70;;;1.40;;
42662;SDS011;44330;51.360;6.686;2022-09-09T13:48:26;5.43;;;1.13;;
42662;SDS011;44330;51.360;6.686;2022-09-09T13:51:36;3.53;;;1.17;;
42662;SDS011;44330;51.360;6.686;2022-09-09T13:53:54;2.33;;;1.10;;
42662;SDS011;44330;51.360;6.686;2022-09-09T13:56:20;4.85;;;1.20;;
42662;SDS011;44330;51.360;6.686;2022-09-09T13:58:46;5.15;;;1.13;;
42662;SDS011;44330;51.360;6.686;2022-09-09T14:01:11;4.35;;;1.50;;
42662;SDS011;44330;51.360;6.686;2022-09-09T14:03:37;5.70;;;1.08;;
42662;SDS011;44330;51.360;6.686;2022-09-09T14:06:02;2.55;;;1.00;;
42662;SDS011;44330;51.360;6.686;2022-09-09T14:08:28;2.75;;;1.05;;
42662;SDS011;44330;51.360;6.686;2022-09-09T14:11:01;4.80;;;1.15;;
42662;SDS011;44330;51.360;6.686;2022-09-09T14:13:28;4.10;;;1.35;;
42662;SDS011;44330;51.360;6.686;2022-09-09T14:15:53;4.68;;;1.17;;
42662;SDS011;44330;51.360;6.686;2022-09-09T14:18:19;6.38;;;1.10;;
42662;SDS011;44330;51.360;6.686;2022-09-09T14:20:47;2.80;;;1.10;;
42662;SDS011;44330;51.360;6.686;2022-09-09T14:23:13;3.00;;;1.00;;
42662;SDS011;44330;51.360;6.686;2022-09-09T14:25:40;4.97;;;1.33;;
42662;SDS011;44330;51.360;6.686;2022-09-09T14:28:07;8.90;;;1.52;;
42662;SDS011;44330;51.360;6.686;2022-09-09T14:30:37;2.60;;;0.60;;
42662;SDS011;44330;51.360;6.686;2022-09-09T14:33:04;2.00;;;0.70;;
42662;SDS011;44330;51.360;6.686;2022-09-09T14:35:30;2.90;;;0.68;;
42662;SDS011;44330;51.360;6.686;2022-09-09T14:37:55;2.70;;;0.40;;
42662;SDS011;44330;51.360;6.686;2022-09-09T14:40:21;2.08;;;0.50;;
42662;SDS011;44330;51.360;6.686;2022-09-09T14:42:47;1.85;;;0.65;;
42662;SDS011;44330;51.360;6.686;2022-09-09T14:45:12;0.47;;;0.40;;
42662;SDS011;44330;51.360;6.686;2022-09-09T14:47:38;2.67;;;0.82;;
42662;SDS011;44330;51.360;6.686;2022-09-09T14:50:04;3.17;;;0.40;;
42662;SDS011;44330;51.360;6.686;2022-09-09T14:52:31;1.75;;;0.70;;
42662;SDS011;44330;51.360;6.686;2022-09-09T14:54:56;1.95;;;0.73;;
42662;SDS011;44330;51.360;6.686;2022-09-09T14:57:22;3.50;;;1.42;;
42662;SDS011;44330;51.360;6.686;2022-09-09T14:59:47;4.50;;;1.15;;
42662;SDS011;44330;51.360;6.686;2022-09-09T15:02:15;3.40;;;0.93;;
42662;SDS011;44330;51.360;6.686;2022-09-09T15:04:40;4.93;;;1.10;;
42662;SDS011;44330;51.360;6.686;2022-09-09T15:07:06;2.92;;;0.60;;
42662;SDS011;44330;51.360;6.686;2022-09-09T15:09:31;3.67;;;0.60;;
42662;SDS011;44330;51.360;6.686;2022-09-09T15:11:57;3.00;;;0.68;;
42662;SDS011;44330;51.360;6.686;2022-09-09T15:14:22;2.08;;;0.50;;
42662;SDS011;44330;51.360;6.686;2022-09-09T15:16:48;2.45;;;1.33;;
42662;SDS011;44330;51.360;6.686;2022-09-09T15:19:13;5.03;;;1.10;;
42662;SDS011;44330;51.360;6.686;2022-09-09T15:21:39;2.28;;;1.10;;
42662;SDS011;44330;51.360;6.686;2022-09-09T15:24:04;3.85;;;1.23;;
42662;SDS011;44330;51.360;6.686;2022-09-09T15:26:33;2.20;;;0.88;;
42662;SDS011;44330;51.360;6.686;2022-09-09T15:28:59;1.45;;;0.70;;
42662;SDS011;44330;51.360;6.686;2022-09-09T15:31:28;1.10;;;0.52;;
42662;SDS011;44330;51.360;6.686;2022-09-09T15:33:59;3.65;;;0.73;;
42662;SDS011;44330;51.360;6.686;2022-09-09T15:36:27;5.07;;;0.70;;
42662;SDS011;44330;51.360;6.686;2022-09-09T15:38:55;12.75;;;1.15;;
42662;SDS011;44330;51.360;6.686;2022-09-09T15:41:21;4.40;;;0.50;;
42662;SDS011;44330;51.360;6.686;2022-09-09T15:43:48;3.47;;;0.70;;
42662;SDS011;44330;51.360;6.686;2022-09-09T15:46:31;1.77;;;0.90;;
42662;SDS011;44330;51.360;6.686;2022-09-09T15:49:11;3.55;;;0.73;;
42662;SDS011;44330;51.360;6.686;2022-09-09T15:51:40;0.85;;;0.32;;
42662;SDS011;44330;51.360;6.686;2022-09-09T15:54:08;1.55;;;0.50;;
42662;SDS011;44330;51.360;6.686;2022-09-09T15:56:34;1.10;;;0.50;;
42662;SDS011;44330;51.360;6.686;2022-09-09T15:59:01;3.80;;;0.40;;
42662;SDS011;44330;51.360;6.686;2022-09-09T16:01:31;4.30;;;0.50;;
42662;SDS011;44330;51.360;6.686;2022-09-09T16:03:57;2.47;;;0.65;;
42662;SDS011;44330;51.360;6.686;2022-09-09T16:06:25;6.68;;;1.30;;
42662;SDS011;44330;51.360;6.686;2022-09-09T16:08:53;5.15;;;0.93;;
42662;SDS011;44330;51.360;6.686;2022-09-09T16:11:23;1.35;;;0.43;;
42662;SDS011;44330;51.360;6.686;2022-09-09T16:13:54;3.15;;;0.60;;
42662;SDS011;44330;51.360;6.686;2022-09-09T16:16:21;1.38;;;0.45;;
42662;SDS011;44330;51.360;6.686;2022-09-09T16:18:50;2.13;;;0.57;;
42662;SDS011;44330;51.360;6.686;2022-09-09T16:23:48;2.90;;;1.00;;
42662;SDS011;44330;51.360;6.686;2022-09-09T16:26:15;8.27;;;1.40;;
42662;SDS011;44330;51.360;6.686;2022-09-09T16:28:42;9.02;;;1.10;;
42662;SDS011;44330;51.360;6.686;2022-09-09T16:31:09;5.35;;;1.73;;
42662;SDS011;44330;51.360;6.686;2022-09-09T16:33:38;5.28;;;0.90;;
42662;SDS011;44330;51.360;6.686;2022-09-09T16:36:08;4.93;;;1.10;;
42662;SDS011;44330;51.360;6.686;2022-09-09T16:38:35;12.75;;;1.27;;
42662;SDS011;44330;51.360;6.686;2022-09-09T16:41:05;11.20;;;1.35;;
42662;SDS011;44330;51.360;6.686;2022-09-09T16:43:32;4.38;;;1.48;;
42662;SDS011;44330;51.360;6.686;2022-09-09T16:45:59;5.53;;;1.40;;
42662;SDS011;44330;51.360;6.686;2022-09-09T16:48:26;5.28;;;1.48;;
42662;SDS011;44330;51.360;6.686;2022-09-09T16:51:04;4.15;;;1.42;;
42662;SDS011;44330;51.360;6.686;2022-09-09T16:53:32;4.13;;;1.40;;
42662;SDS011;44330;51.360;6.686;2022-09-09T16:55:58;6.15;;;1.00;;
42662;SDS011;44330;51.360;6.686;2022-09-09T16:58:33;10.75;;;2.13;;
42662;SDS011;44330;51.360;6.686;2022-09-09T17:01:03;6.80;;;1.77;;
42662;SDS011;44330;51.360;6.686;2022-09-09T17:03:29;9.25;;;1.60;;
42662;SDS011;44330;51.360;6.686;2022-09-09T17:05:56;4.95;;;0.85;;
42662;SDS011;44330;51.360;6.686;2022-09-09T17:08:23;5.68;;;1.58;;
42662;SDS011;44330;51.360;6.686;2022-09-09T17:10:49;6.20;;;1.40;;
42662;SDS011;44330;51.360;6.686;2022-09-09T17:13:15;2.85;;;0.93;;
42662;SDS011;44330;51.360;6.686;2022-09-09T17:15:42;4.80;;;1.40;;
42662;SDS011;44330;51.360;6.686;2022-09-09T17:18:09;3.95;;;1.60;;
42662;SDS011;44330;51.360;6.686;2022-09-09T17:20:36;4.18;;;2.13;;